createdAt,value
2019-01-16T00:00:41.248Z,100627.13
2019-01-16T00:03:10.512Z,100622.80
2019-01-16T00:05:42.472Z,100627.84
2019-01-16T00:08:29.404Z,100624.52
2019-01-16T00:10:58.889Z,100627.72
2019-01-16T00:13:30.035Z,100622.70
2019-01-16T00:16:04.118Z,100615.84
2019-01-16T00:18:35.254Z,100616.38
2019-01-16T00:21:12.238Z,100624.88
2019-01-16T00:23:46.376Z,100616.31
2019-01-16T00:26:33.578Z,100623.47
2019-01-16T00:29:08.295Z,100615.82
2019-01-16T00:32:16.889Z,100608.45
2019-01-16T00:34:48.005Z,100613.86
2019-01-16T00:37:34.970Z,100611.48
2019-01-16T00:40:09.334Z,100614.66
2019-01-16T00:42:47.109Z,100616.53
2019-01-16T00:45:21.710Z,100614.62
2019-01-16T00:48:04.936Z,100603.48
2019-01-16T00:50:52.160Z,100601.59
2019-01-16T00:53:28.932Z,100597.12
2019-01-16T00:56:00.586Z,100609.33
2019-01-16T00:58:37.534Z,100610.73
2019-01-16T01:01:17.827Z,100613.36
2019-01-16T01:03:49.184Z,100609.41
2019-01-16T01:06:33.456Z,100611.82
2019-01-16T01:09:16.333Z,100615.03
2019-01-16T01:11:56.159Z,100609.20
2019-01-16T01:14:27.692Z,100606.26
2019-01-16T01:16:58.815Z,100607.34
2019-01-16T01:19:46.721Z,100609.99
2019-01-16T01:22:20.566Z,100608.83
2019-01-16T01:24:49.862Z,100613.59
2019-01-16T01:27:35.995Z,100619.95
2019-01-16T01:30:14.547Z,100622.95
2019-01-16T01:32:54.566Z,100622.33
2019-01-16T01:35:34.206Z,100626.25
2019-01-16T01:38:21.172Z,100629.44
2019-01-16T01:40:52.326Z,100623.77
2019-01-16T01:43:21.591Z,100628.58
2019-01-16T01:45:55.417Z,100623.55
2019-01-16T01:48:39.971Z,100623.63
2019-01-16T01:51:13.931Z,100623.55
2019-01-16T01:53:45.042Z,100629.64
2019-01-16T01:56:18.885Z,100634.79
2019-01-16T01:59:08.172Z,100628.88
2019-01-16T02:01:50.955Z,100619.73
2019-01-16T02:04:22.139Z,100628.41
2019-01-16T02:07:09.365Z,100626.17
2019-01-16T02:09:40.830Z,100622.36
2019-01-16T02:12:11.985Z,100621.81
2019-01-16T02:14:52.098Z,100621.06
2019-01-16T02:17:26.937Z,100623.34
2019-01-16T02:20:00.771Z,100619.21
2019-01-16T02:22:37.999Z,100613.54
2019-01-16T02:25:18.195Z,100617.80
2019-01-16T02:28:04.373Z,100618.47
2019-01-16T02:30:35.681Z,100610.05
2019-01-16T02:33:15.682Z,100602.05
2019-01-16T02:36:05.349Z,100593.04
2019-01-16T02:38:39.166Z,100595.21
2019-01-16T02:41:25.080Z,100602.07
2019-01-16T02:44:04.659Z,100589.83
2019-01-16T02:46:52.248Z,100592.38
2019-01-16T02:49:26.080Z,100587.34
2019-01-16T02:52:09.054Z,100589.76
2019-01-16T02:54:40.196Z,100586.34
2019-01-16T03:00:03.927Z,100584.56
2019-01-16T03:02:35.055Z,100585.41
2019-01-16T03:05:24.709Z,100587.23
2019-01-16T03:07:55.915Z,100578.31
2019-01-16T03:10:33.025Z,100576.41
2019-01-16T03:13:13.159Z,100570.53
2019-01-16T03:15:46.705Z,100566.57
2019-01-16T03:18:20.510Z,100564.16
2019-01-16T03:21:07.228Z,100560.62
2019-01-16T03:23:52.792Z,100550.61
2019-01-16T03:26:26.679Z,100554.84
2019-01-16T03:29:09.538Z,100543.06
2019-01-16T03:31:40.805Z,100552.88
2019-01-16T03:34:14.667Z,100558.13
2019-01-16T03:37:02.751Z,100554.12
2019-01-16T03:42:44.538Z,100552.33
2019-01-16T03:45:21.521Z,100544.84
2019-01-16T03:47:52.679Z,100546.62
2019-01-16T03:50:26.189Z,100540.17
2019-01-16T03:53:03.152Z,100536.48
2019-01-16T03:55:52.517Z,100537.91
2019-01-16T03:58:32.221Z,100533.00
2019-01-16T04:01:03.371Z,100533.08
2019-01-16T04:03:37.371Z,100520.55
2019-01-16T04:06:08.489Z,100523.31
2019-01-16T04:08:48.847Z,100513.86
2019-01-16T04:11:20.201Z,100511.30
2019-01-16T04:13:53.826Z,100520.38
2019-01-16T04:16:41.025Z,100519.03
2019-01-16T04:19:21.762Z,100519.84
2019-01-16T04:21:50.733Z,100506.56
2019-01-16T04:24:27.523Z,100506.38
2019-01-16T04:27:15.427Z,100502.58
2019-01-16T04:30:02.855Z,100511.76
2019-01-16T04:32:33.991Z,100506.05
2019-01-16T04:35:09.052Z,100502.44
2019-01-16T04:40:41.933Z,100494.54
2019-01-16T04:43:13.511Z,100495.76
2019-01-16T04:45:47.497Z,100490.61
2019-01-16T04:48:21.742Z,100487.47
2019-01-16T04:51:05.119Z,100484.20
2019-01-16T04:53:52.326Z,100469.97
2019-01-16T04:56:23.470Z,100481.94
2019-01-16T04:58:55.366Z,100478.18
2019-01-16T05:01:42.303Z,100468.02
2019-01-16T05:04:13.422Z,100467.02
2019-01-16T05:06:44.600Z,100473.31
2019-01-16T05:09:15.795Z,100475.38
2019-01-16T05:11:56.055Z,100479.88
2019-01-16T05:14:35.935Z,100476.14
2019-01-16T05:17:12.884Z,100479.51
2019-01-16T05:19:49.813Z,100474.59
2019-01-16T05:22:26.573Z,100476.19
2019-01-16T05:25:00.481Z,100477.87
2019-01-16T05:27:33.997Z,100470.75
2019-01-16T05:30:03.307Z,100479.41
2019-01-16T05:32:46.300Z,100474.64
2019-01-16T05:35:23.178Z,100477.84
2019-01-16T05:38:09.386Z,100474.40
2019-01-16T05:40:47.240Z,100478.13
2019-01-16T05:43:34.096Z,100464.19
2019-01-16T05:46:05.230Z,100467.92
2019-01-16T05:48:36.378Z,100467.28
2019-01-16T05:51:22.202Z,100461.50
2019-01-16T05:53:51.456Z,100453.94
2019-01-16T05:56:32.368Z,100465.39
2019-01-16T05:59:05.926Z,100460.70
2019-01-16T06:01:53.151Z,100462.41
2019-01-16T06:04:29.976Z,100458.44
2019-01-16T06:07:32.205Z,100460.66
2019-01-16T06:10:12.562Z,100449.53
2019-01-16T06:12:58.842Z,100455.57
2019-01-16T06:15:45.196Z,100455.02
2019-01-16T06:18:25.320Z,100457.35
2019-01-16T06:21:02.490Z,100452.07
2019-01-16T06:23:45.610Z,100447.55
2019-01-16T06:26:19.770Z,100440.74
2019-01-16T06:29:07.365Z,100444.88
2019-01-16T06:31:45.540Z,100446.56
2019-01-16T06:34:32.503Z,100441.39
2019-01-16T06:37:19.906Z,100443.50
2019-01-16T06:39:59.930Z,100444.43
2019-01-16T06:42:36.835Z,100441.77
2019-01-16T06:45:27.887Z,100437.36
2019-01-16T06:48:11.072Z,100444.41
2019-01-16T06:50:42.218Z,100439.41
2019-01-16T06:53:13.428Z,100437.59
2019-01-16T06:55:48.682Z,100442.98
2019-01-16T06:58:31.282Z,100446.22
2019-01-16T07:01:02.471Z,100440.84
2019-01-16T07:03:48.740Z,100444.89
2019-01-16T07:06:34.890Z,100443.48
2019-01-16T07:09:13.272Z,100440.88
2019-01-16T07:11:44.478Z,100436.64
2019-01-16T07:14:27.771Z,100440.53
2019-01-16T07:17:15.432Z,100441.95
2019-01-16T07:19:52.594Z,100439.20
2019-01-16T07:22:23.932Z,100442.55
2019-01-16T07:25:03.784Z,100433.37
2019-01-16T07:27:51.146Z,100438.94
2019-01-16T07:30:44.046Z,100436.03
2019-01-16T07:33:31.414Z,100434.59
2019-01-16T07:36:11.622Z,100427.14
2019-01-16T07:38:42.790Z,100433.83
2019-01-16T07:41:22.687Z,100436.34
2019-01-16T07:43:56.722Z,100431.06
2019-01-16T07:46:27.902Z,100433.58
2019-01-16T07:49:01.725Z,100434.12
2019-01-16T07:51:45.426Z,100423.17
2019-01-16T07:54:32.920Z,100434.31
2019-01-16T07:57:07.022Z,100428.41
2019-01-16T07:59:38.149Z,100436.14
2019-01-16T08:02:12.066Z,100440.97
2019-01-16T08:04:47.726Z,100430.66
2019-01-16T08:07:24.686Z,100429.66
2019-01-16T08:10:01.359Z,100430.64
2019-01-16T08:12:38.250Z,100435.66
2019-01-16T08:15:26.988Z,100434.21
2019-01-16T08:18:01.184Z,100436.28
2019-01-16T08:20:35.167Z,100430.66
2019-01-16T08:23:22.864Z,100421.21
2019-01-16T08:25:59.973Z,100432.23
2019-01-16T08:28:45.471Z,100430.34
2019-01-16T08:31:22.595Z,100424.05
2019-01-16T08:34:08.445Z,100424.17
2019-01-16T08:36:51.614Z,100418.55
2019-01-16T08:39:22.976Z,100416.57
2019-01-16T08:42:00.023Z,100423.45
2019-01-16T08:44:34.096Z,100414.54
2019-01-16T08:47:11.189Z,100416.22
2019-01-16T08:49:54.634Z,100415.40
2019-01-16T08:52:42.057Z,100411.50
2019-01-16T08:55:13.360Z,100410.50
2019-01-16T08:57:59.487Z,100410.14
2019-01-16T09:00:31.391Z,100401.05
2019-01-16T09:03:14.558Z,100404.22
2019-01-16T09:05:46.277Z,100400.36
2019-01-16T09:08:20.211Z,100389.56
2019-01-16T09:11:00.531Z,100397.38
2019-01-16T09:13:37.427Z,100385.20
2019-01-16T09:16:23.269Z,100382.95
2019-01-16T09:18:57.139Z,100384.01
2019-01-16T09:21:44.122Z,100383.19
2019-01-16T09:24:22.056Z,100392.47
2019-01-16T09:26:59.560Z,100383.70
2019-01-16T09:29:30.713Z,100375.38
2019-01-16T09:32:04.264Z,100365.34
2019-01-16T09:34:35.438Z,100365.17
2019-01-16T09:37:07.511Z,100362.02
2019-01-16T09:39:41.383Z,100362.42
2019-01-16T09:42:21.395Z,100358.50
2019-01-16T09:44:55.662Z,100361.58
2019-01-16T09:47:28.742Z,100364.55
2019-01-16T09:49:59.841Z,100358.04
2019-01-16T09:52:43.154Z,100356.06
2019-01-16T09:55:18.139Z,100356.24
2019-01-16T09:57:49.309Z,100352.02
2019-01-16T10:00:36.637Z,100358.75
2019-01-16T10:03:19.759Z,100356.50
2019-01-16T10:06:06.911Z,100363.58
2019-01-16T10:08:55.017Z,100351.66
2019-01-16T10:11:32.193Z,100353.39
2019-01-16T10:14:03.365Z,100349.37
2019-01-16T10:16:51.916Z,100349.91
2019-01-16T10:19:32.164Z,100343.31
2019-01-16T10:22:21.291Z,100341.98
2019-01-16T10:24:55.218Z,100341.27
2019-01-16T10:27:35.076Z,100339.75
2019-01-16T10:30:28.671Z,100332.19
2019-01-16T10:32:59.825Z,100334.55
2019-01-16T10:35:34.676Z,100333.15
2019-01-16T10:38:16.104Z,100332.50
2019-01-16T10:41:03.251Z,100315.62
2019-01-16T10:43:34.380Z,100317.47
2019-01-16T10:46:08.358Z,100328.45
2019-01-16T10:48:39.509Z,100310.51
2019-01-16T10:51:10.653Z,100300.91
2019-01-16T10:53:41.940Z,100297.36
2019-01-16T10:56:31.362Z,100285.73
2019-01-16T10:59:11.153Z,100297.72
2019-01-16T11:01:42.336Z,100298.56
2019-01-16T11:04:13.546Z,100288.26
2019-01-16T11:09:32.561Z,100285.54
2019-01-16T11:12:04.125Z,100282.85
2019-01-16T11:14:43.989Z,100286.56
2019-01-16T11:17:15.234Z,100277.38
2019-01-16T11:19:49.259Z,100275.22
2019-01-16T11:22:23.241Z,100272.02
2019-01-16T11:24:57.005Z,100266.59
2019-01-16T11:27:31.185Z,100270.28
2019-01-16T11:30:08.417Z,100267.97
2019-01-16T11:32:45.374Z,100258.30
2019-01-16T11:35:32.577Z,100262.19
2019-01-16T11:38:19.749Z,100264.57
2019-01-16T11:40:53.556Z,100261.47
2019-01-16T11:43:26.062Z,100245.61
2019-01-16T11:46:00.131Z,100247.35
2019-01-16T11:48:37.026Z,100242.45
2019-01-16T11:51:08.232Z,100251.75
2019-01-16T11:53:42.363Z,100251.72
2019-01-16T11:56:13.505Z,100250.67
2019-01-16T11:59:01.009Z,100258.22
2019-01-16T12:01:48.080Z,100256.34
2019-01-16T12:04:19.284Z,100248.80
2019-01-16T12:06:50.424Z,100248.58
2019-01-16T12:09:21.633Z,100244.59
2019-01-16T12:12:08.646Z,100239.56
2019-01-16T12:14:55.152Z,100228.06
2019-01-16T12:20:09.429Z,100221.67
2019-01-16T12:22:40.827Z,100225.69
2019-01-16T12:25:17.852Z,100223.34
2019-01-16T12:27:48.999Z,100211.20
2019-01-16T12:30:22.955Z,100205.47
2019-01-16T12:32:54.138Z,100212.85
2019-01-16T12:35:31.256Z,100197.92
2019-01-16T12:38:02.403Z,100200.02
2019-01-16T12:40:31.652Z,100198.05
2019-01-16T12:43:14.819Z,100188.05
2019-01-16T12:45:48.346Z,100183.14
2019-01-16T12:48:29.558Z,100187.22
2019-01-16T12:51:00.726Z,100182.86
2019-01-16T12:53:34.548Z,100186.59
2019-01-16T12:56:06.793Z,100176.80
2019-01-16T12:58:43.906Z,100180.67
2019-01-16T13:01:20.936Z,100175.61
2019-01-16T13:03:54.998Z,100177.47
2019-01-16T13:06:33.209Z,100172.41
2019-01-16T13:09:14.201Z,100164.62
2019-01-16T13:11:48.912Z,100154.17
2019-01-16T13:14:20.030Z,100148.56
2019-01-16T13:16:51.142Z,100154.46
2019-01-16T13:19:34.243Z,100147.72
2019-01-16T13:22:11.405Z,100151.45
2019-01-16T13:24:45.588Z,100149.62
2019-01-16T13:27:23.000Z,100140.67
2019-01-16T13:30:06.270Z,100153.47
2019-01-16T13:32:39.854Z,100147.09
2019-01-16T13:35:14.127Z,100148.44
2019-01-16T13:37:53.818Z,100136.95
2019-01-16T13:40:27.387Z,100137.47
2019-01-16T13:43:02.124Z,100139.32
2019-01-16T13:45:50.076Z,100134.42
2019-01-16T13:48:37.377Z,100139.16
2019-01-16T13:51:24.286Z,100145.39
2019-01-16T13:54:11.408Z,100129.17
2019-01-16T13:56:54.582Z,100130.00
2019-01-16T13:59:37.966Z,100121.55
2019-01-16T14:02:16.526Z,100132.85
2019-01-16T14:05:05.721Z,100124.09
2019-01-16T14:07:54.787Z,100106.39
2019-01-16T14:10:27.733Z,100118.98
2019-01-16T14:13:04.857Z,100113.95
2019-01-16T14:15:37.000Z,100117.08
2019-01-16T14:18:11.096Z,100114.59
2019-01-16T14:20:42.267Z,100123.59
2019-01-16T14:23:29.459Z,100115.08
2019-01-16T14:26:16.352Z,100103.34
2019-01-16T14:29:03.674Z,100106.84
2019-01-16T14:31:34.794Z,100113.19
2019-01-16T14:34:04.735Z,100100.80
2019-01-16T14:36:45.710Z,100105.34
2019-01-16T14:39:35.169Z,100100.44
2019-01-16T14:42:22.386Z,100113.74
2019-01-16T14:44:56.348Z,100109.41
2019-01-16T14:47:27.591Z,100107.55
2019-01-16T14:50:01.116Z,100097.55
2019-01-16T14:52:32.260Z,100098.78
2019-01-16T14:55:06.025Z,100098.09
2019-01-16T14:57:34.544Z,100100.91
2019-01-16T15:00:24.911Z,100093.83
2019-01-16T15:03:12.039Z,100090.84
2019-01-16T15:05:46.082Z,100092.13
2019-01-16T15:08:29.033Z,100093.00
2019-01-16T15:11:12.195Z,100093.70
2019-01-16T15:13:53.038Z,100091.99
2019-01-16T15:16:24.209Z,100088.24
2019-01-16T15:18:57.795Z,100087.96
2019-01-16T15:21:28.948Z,100086.79
2019-01-16T15:24:16.318Z,100075.80
2019-01-16T15:26:49.842Z,100078.03
2019-01-16T15:29:36.886Z,100091.31
2019-01-16T15:32:24.146Z,100091.51
2019-01-16T15:35:04.912Z,100074.95
2019-01-16T15:37:36.046Z,100080.72
2019-01-16T15:40:28.405Z,100072.77
2019-01-16T15:42:59.527Z,100070.08
2019-01-16T15:45:37.187Z,100067.41
2019-01-16T15:48:26.496Z,100067.91
2019-01-16T15:51:06.259Z,100063.20
2019-01-16T15:53:52.413Z,100044.72
2019-01-16T15:56:23.915Z,100039.59
2019-01-16T15:58:58.391Z,100020.50
2019-01-16T16:01:38.343Z,100030.17
2019-01-16T16:04:15.205Z,100039.26
2019-01-16T16:06:58.309Z,100044.65
2019-01-16T16:09:35.046Z,100034.81
2019-01-16T16:12:21.998Z,100022.19
2019-01-16T16:15:11.283Z,100017.05
2019-01-16T16:17:46.006Z,100022.38
2019-01-16T16:20:23.031Z,100020.22
2019-01-16T16:22:54.231Z,100014.61
2019-01-16T16:25:28.022Z,100016.53
2019-01-16T16:27:59.967Z,100017.39
2019-01-16T16:30:46.307Z,100010.75
2019-01-16T16:33:23.757Z,100024.72
2019-01-16T16:35:55.970Z,100013.83
2019-01-16T16:38:29.887Z,100018.08
2019-01-16T16:41:09.963Z,100012.02
2019-01-16T16:43:41.279Z,99996.17
2019-01-16T16:46:13.487Z,99997.33
2019-01-16T16:48:56.970Z,100002.19
2019-01-16T16:51:30.588Z,99984.77
2019-01-16T16:54:01.700Z,99984.41
2019-01-16T16:56:45.392Z,99984.55
2019-01-16T16:59:22.432Z,99981.55
2019-01-16T17:01:59.171Z,99981.45
2019-01-16T17:04:48.139Z,99976.77
2019-01-16T17:07:18.186Z,99966.31
2019-01-16T17:09:55.034Z,99959.91
2019-01-16T17:12:26.174Z,99961.06
2019-01-16T17:15:12.555Z,99957.74
2019-01-16T17:17:43.714Z,99950.34
2019-01-16T17:20:18.287Z,99959.02
2019-01-16T17:22:52.363Z,99947.29
2019-01-16T17:25:39.234Z,99936.15
2019-01-16T17:28:10.418Z,99937.85
2019-01-16T17:30:44.360Z,99946.98
2019-01-16T17:33:18.167Z,99950.61
2019-01-16T17:35:49.338Z,99933.77
2019-01-16T17:38:20.485Z,99942.19
2019-01-16T17:43:43.215Z,99936.75
2019-01-16T17:46:14.470Z,99942.16
2019-01-16T17:49:03.537Z,99923.69
2019-01-16T17:51:47.970Z,99919.53
2019-01-16T17:54:11.816Z,99922.97
2019-01-16T17:56:49.380Z,99919.53
2019-01-16T17:59:24.065Z,99934.52
2019-01-16T18:02:03.052Z,99907.05
2019-01-16T18:04:34.199Z,99904.77
2019-01-16T18:07:08.330Z,99896.85
2019-01-16T18:09:39.441Z,99893.60
2019-01-16T18:12:16.895Z,99910.39
2019-01-16T18:15:04.497Z,99890.13
2019-01-16T18:17:35.752Z,99902.02
2019-01-16T18:20:17.535Z,99891.11
2019-01-16T18:22:51.714Z,99890.84
2019-01-16T18:25:38.625Z,99891.84
2019-01-16T18:28:15.808Z,99896.17
2019-01-16T18:30:55.428Z,99887.70
2019-01-16T18:33:29.638Z,99900.75
2019-01-16T18:36:07.770Z,99889.86
2019-01-16T18:38:39.081Z,99884.16
2019-01-16T18:41:10.221Z,99873.93
2019-01-16T18:43:50.829Z,99880.16
2019-01-16T18:46:40.301Z,99870.84
2019-01-16T18:49:11.520Z,99868.42
2019-01-16T18:52:00.860Z,99865.85
2019-01-16T18:54:32.036Z,99859.62
2019-01-16T18:57:21.183Z,99863.52
2019-01-16T18:59:52.666Z,99858.39
2019-01-16T19:02:28.142Z,99852.27
2019-01-16T19:05:14.892Z,99857.02
2019-01-16T19:08:01.118Z,99849.58
2019-01-16T19:10:32.416Z,99847.98
2019-01-16T19:13:15.510Z,99844.97
2019-01-16T19:15:47.350Z,99845.00
2019-01-16T19:18:24.338Z,99843.52
2019-01-16T19:20:55.489Z,99835.49
2019-01-16T19:23:29.277Z,99841.05
2019-01-16T19:26:00.952Z,99845.18
2019-01-16T19:28:47.304Z,99837.06
2019-01-16T19:31:21.317Z,99835.63
2019-01-16T19:34:07.640Z,99830.64
2019-01-16T19:36:55.010Z,99839.76
2019-01-16T19:39:42.211Z,99817.56
2019-01-16T19:42:26.410Z,99825.08
2019-01-16T19:44:55.702Z,99826.19
2019-01-16T19:47:27.334Z,99812.83
2019-01-16T19:49:56.691Z,99807.12
2019-01-16T19:52:31.438Z,99807.45
2019-01-16T19:55:14.515Z,99810.83
2019-01-16T19:57:48.521Z,99801.58
2019-01-16T20:00:30.614Z,99801.50
2019-01-16T20:03:11.014Z,99793.75
2019-01-16T20:05:45.148Z,99798.66
2019-01-16T20:08:23.387Z,99783.62
2019-01-16T20:10:52.869Z,99780.57
2019-01-16T20:13:39.864Z,99770.82
2019-01-16T20:16:22.807Z,99756.52
2019-01-16T20:18:53.981Z,99762.39
2019-01-16T20:21:27.692Z,99768.48
2019-01-16T20:24:07.817Z,99759.87
2019-01-16T20:26:42.129Z,99749.03
2019-01-16T20:29:22.110Z,99735.99
2019-01-16T20:31:53.254Z,99740.83
2019-01-16T20:34:36.131Z,99736.70
2019-01-16T20:37:22.891Z,99731.73
2019-01-16T20:40:06.070Z,99728.30
2019-01-16T20:42:51.853Z,99729.30
2019-01-16T20:45:32.033Z,99721.89
2019-01-16T20:48:03.160Z,99719.67
2019-01-16T20:50:36.730Z,99712.75
2019-01-16T20:53:07.886Z,99709.11
2019-01-16T20:55:45.818Z,99702.66
2019-01-16T20:58:17.612Z,99701.41
2019-01-16T21:00:46.893Z,99703.92
2019-01-16T21:03:18.053Z,99692.03
2019-01-16T21:05:54.824Z,99696.55
2019-01-16T21:08:34.819Z,99693.20
2019-01-16T21:11:18.368Z,99686.61
2019-01-16T21:13:52.177Z,99682.75
2019-01-16T21:16:29.496Z,99682.16
2019-01-16T21:19:03.025Z,99679.16
2019-01-16T21:21:36.937Z,99684.88
2019-01-16T21:24:16.677Z,99670.24
2019-01-16T21:26:59.497Z,99668.92
2019-01-16T21:29:30.632Z,99661.36
2019-01-16T21:31:59.906Z,99657.30
2019-01-16T21:34:37.300Z,99659.50
2019-01-16T21:37:11.435Z,99650.94
2019-01-16T21:39:42.624Z,99648.58
2019-01-16T21:42:28.832Z,99651.94
2019-01-16T21:45:00.173Z,99656.50
2019-01-16T21:47:37.310Z,99640.70
2019-01-16T21:50:26.822Z,99635.34
2019-01-16T21:52:57.988Z,99632.30
2019-01-16T21:55:31.542Z,99640.38
2019-01-16T21:58:03.218Z,99635.31
2019-01-16T22:00:34.364Z,99625.77
2019-01-16T22:03:08.012Z,99635.51
2019-01-16T22:05:47.708Z,99620.05
2019-01-16T22:08:34.380Z,99619.17
2019-01-16T22:11:14.123Z,99625.37
2019-01-16T22:13:45.310Z,99605.56
2019-01-16T22:16:17.775Z,99608.61
2019-01-16T22:18:51.617Z,99602.22
2019-01-16T22:21:28.866Z,99589.09
2019-01-16T22:24:03.356Z,99585.73
2019-01-16T22:26:49.551Z,99576.65
2019-01-16T22:29:26.473Z,99578.86
2019-01-16T22:32:06.814Z,99573.30
2019-01-16T22:34:46.669Z,99583.72
2019-01-16T22:37:17.786Z,99567.08
2019-01-16T22:39:48.921Z,99545.23
2019-01-16T22:42:21.151Z,99552.97
2019-01-16T22:44:52.270Z,99541.03
2019-01-16T22:47:23.413Z,99540.69
2019-01-16T22:50:11.282Z,99542.88
2019-01-16T22:52:49.271Z,99536.66
2019-01-16T22:55:29.464Z,99540.02
2019-01-16T22:58:15.909Z,99537.00
2019-01-16T23:00:55.556Z,99523.72
2019-01-16T23:03:35.381Z,99518.52
2019-01-16T23:06:07.615Z,99524.90
2019-01-16T23:08:38.829Z,99511.45
2019-01-16T23:11:10.089Z,99509.44
2019-01-16T23:13:43.681Z,99506.75
2019-01-16T23:16:17.193Z,99495.31
2019-01-16T23:18:51.441Z,99501.88
2019-01-16T23:21:31.287Z,99496.83
2019-01-16T23:24:03.243Z,99490.78
2019-01-16T23:26:50.137Z,99509.77
2019-01-16T23:29:24.464Z,99483.23
2019-01-16T23:32:01.534Z,99493.30
2019-01-16T23:34:35.613Z,99482.55
2019-01-16T23:37:07.849Z,99490.45
2019-01-16T23:39:37.571Z,99487.26
2019-01-16T23:42:11.591Z,99483.89
2019-01-16T23:44:54.660Z,99481.20
2019-01-16T23:47:25.892Z,99478.98
2019-01-16T23:50:05.736Z,99476.50
2019-01-16T23:52:39.917Z,99471.12
2019-01-16T23:55:14.155Z,99474.16
2019-01-16T23:57:50.981Z,99478.85
